Time,TemperatureF,DewpointF,PressureIn,WindDirection,WindDirectionDegrees,WindSpeedMPH,WindSpeedGustMPH,Humidity,HourlyPrecipIn,Conditions,Clouds,dailyrainin,SoftwareType,DateUTC
2013-07-15 00:00:00,53.8,51.8,29.98,SSW,201,6.0,11.0,93,0.00,,,0.00,meteohub,2013-07-15 07:00:00,
2013-07-15 00:05:00,54.0,52.0,29.98,SSW,204,6.0,11.0,93,0.00,,,0.00,meteohub,2013-07-15 07:05:00,
2013-07-15 00:10:00,54.0,52.0,29.98,SSE,167,5.0,12.0,93,0.00,,,0.00,meteohub,2013-07-15 07:10:00,
2013-07-15 00:15:00,53.8,51.8,29.98,SSW,197,5.0,12.0,93,0.00,,,0.00,meteohub,2013-07-15 07:15:00,
2013-07-15 00:20:00,53.8,51.8,29.98,SSW,201,7.0,11.0,93,0.00,,,0.00,meteohub,2013-07-15 07:20:00,
2013-07-15 00:25:00,53.8,51.4,29.98,SSW,192,7.0,10.0,92,0.00,,,0.00,meteohub,2013-07-15 07:25:00,
2013-07-15 00:30:00,53.6,51.3,29.98,SW,214,6.0,10.0,92,0.00,,,0.00,meteohub,2013-07-15 07:30:00,
2013-07-15 00:35:00,53.8,51.8,29.98,SSW,194,7.0,10.0,93,0.00,,,0.00,meteohub,2013-07-15 07:35:00,
2013-07-15 00:40:00,53.8,51.4,29.98,SW,214,5.0,10.0,92,0.00,,,0.00,meteohub,2013-07-15 07:40:00,
2013-07-15 00:45:00,53.8,51.4,29.98,South,181,8.0,10.0,92,0.00,,,0.00,meteohub,2013-07-15 07:45:00,
2013-07-15 00:50:00,53.8,51.4,29.98,SSE,165,2.0,10.0,92,0.00,,,0.00,meteohub,2013-07-15 07:50:00,
2013-07-15 00:55:00,53.6,51.3,29.98,SSW,196,7.0,10.0,92,0.00,,,0.00,meteohub,2013-07-15 07:55:00,
2013-07-15 01:00:00,53.8,51.4,29.98,SSW,211,6.0,10.0,92,0.00,,,0.00,meteohub,2013-07-15 08:00:00,
2013-07-15 01:05:00,53.4,51.1,29.98,SSW,194,3.0,10.0,92,0.00,,,0.00,meteohub,2013-07-15 08:05:00,
2013-07-15 01:10:00,53.4,51.1,29.98,SSE,166,4.0,10.0,92,0.00,,,0.00,meteohub,2013-07-15 08:10:00,
2013-07-15 01:15:00,53.2,50.9,29.98,South,184,8.0,10.0,92,0.00,,,0.00,meteohub,2013-07-15 08:15:00,
2013-07-15 01:21:00,53.2,51.3,29.98,South,181,4.0,11.0,93,0.00,,,0.00,meteohub,2013-07-15 08:21:00,
2013-07-15 01:26:00,53.4,51.1,29.98,South,170,7.0,11.0,92,0.00,,,0.00,meteohub,2013-07-15 08:26:00,
2013-07-15 01:31:00,53.1,50.7,29.97,South,191,6.0,12.0,92,0.00,,,0.00,meteohub,2013-07-15 08:31:00,
2013-07-15 01:36:00,53.1,51.1,29.97,South,170,6.0,12.0,93,0.00,,,0.00,meteohub,2013-07-15 08:36:00,
2013-07-15 01:41:00,53.1,51.1,29.97,SSW,193,4.0,12.0,93,0.00,,,0.00,meteohub,2013-07-15 08:41:00,
2013-07-15 01:46:00,53.2,51.3,29.97,South,191,3.0,8.0,93,0.00,,,0.00,meteohub,2013-07-15 08:46:00,
2013-07-15 01:51:00,53.2,51.3,29.97,South,191,4.0,9.0,93,0.00,,,0.00,meteohub,2013-07-15 08:51:00,
2013-07-15 01:56:00,53.2,51.3,29.97,SSW,192,5.0,10.0,93,0.00,,,0.00,meteohub,2013-07-15 08:56:00,
2013-07-15 02:01:00,53.2,51.3,29.97,SSW,193,3.0,10.0,93,0.00,,,0.00,meteohub,2013-07-15 09:01:00,
2013-07-15 02:06:00,53.1,51.1,29.97,South,183,1.0,10.0,93,0.00,,,0.00,meteohub,2013-07-15 09:06:00,
2013-07-15 02:11:00,53.1,51.1,29.97,SSW,199,7.0,10.0,93,0.00,,,0.00,meteohub,2013-07-15 09:11:00,
2013-07-15 02:16:00,53.1,51.1,29.97,South,186,5.0,9.0,93,0.00,,,0.00,meteohub,2013-07-15 09:16:00,
2013-07-15 02:21:00,53.1,51.1,29.97,South,174,5.0,11.0,93,0.00,,,0.00,meteohub,2013-07-15 09:21:00,
2013-07-15 02:26:00,53.1,51.1,29.97,SSW,201,9.0,11.0,93,0.00,,,0.00,meteohub,2013-07-15 09:26:00,
2013-07-15 02:31:00,52.9,50.9,29.97,South,191,5.0,11.0,93,0.00,,,0.00,meteohub,2013-07-15 09:31:00,
2013-07-15 02:36:00,52.5,50.5,29.97,South,174,5.0,11.0,93,0.00,,,0.00,meteohub,2013-07-15 09:36:00,
2013-07-15 02:41:00,52.5,50.5,29.97,SSW,202,9.0,11.0,93,0.00,,,0.00,meteohub,2013-07-15 09:41:00,
2013-07-15 02:46:00,52.5,50.5,29.97,SSW,212,6.0,11.0,93,0.00,,,0.00,meteohub,2013-07-15 09:46:00,
2013-07-15 02:51:00,52.2,50.2,29.97,SSW,206,11.0,15.0,93,0.00,,,0.00,meteohub,2013-07-15 09:51:00,
2013-07-15 02:56:00,52.2,50.5,29.97,SSW,212,8.0,15.0,94,0.00,,,0.00,meteohub,2013-07-15 09:56:00,
2013-07-15 03:01:00,52.3,50.7,29.97,South,184,10.0,15.0,94,0.00,,,0.00,meteohub,2013-07-15 10:01:00,
2013-07-15 03:06:00,52.3,50.7,29.97,SSW,206,7.0,13.0,94,0.00,,,0.00,meteohub,2013-07-15 10:06:00,
2013-07-15 03:11:00,52.2,50.5,29.97,SSW,194,10.0,15.0,94,0.00,,,0.00,meteohub,2013-07-15 10:11:00,
2013-07-15 03:16:00,52.2,50.5,29.97,South,187,13.0,17.0,94,0.00,,,0.00,meteohub,2013-07-15 10:16:00,
2013-07-15 03:21:00,52.2,50.5,29.97,SSW,202,14.0,17.0,94,0.00,,,0.00,meteohub,2013-07-15 10:21:00,
2013-07-15 03:26:00,52.3,50.7,29.97,SSW,203,8.0,17.0,94,0.00,,,0.00,meteohub,2013-07-15 10:26:00,
2013-07-15 03:31:00,52.2,50.5,29.97,SSW,207,8.0,17.0,94,0.00,,,0.00,meteohub,2013-07-15 10:31:00,
2013-07-15 03:36:00,52.0,50.4,29.97,SSW,211,10.0,17.0,94,0.00,,,0.00,meteohub,2013-07-15 10:36:00,
2013-07-15 03:41:00,52.0,50.5,29.97,SSW,202,6.0,14.0,95,0.00,,,0.00,meteohub,2013-07-15 10:41:00,
2013-07-15 03:46:00,52.2,50.7,29.97,South,187,10.0,14.0,95,0.00,,,0.00,meteohub,2013-07-15 10:46:00,
2013-07-15 03:51:00,52.0,50.5,29.97,SSW,204,11.0,16.0,95,0.00,,,0.00,meteohub,2013-07-15 10:51:00,
2013-07-15 03:57:00,52.0,50.5,29.97,SW,226,10.0,16.0,95,0.00,,,0.00,meteohub,2013-07-15 10:57:00,
2013-07-15 04:02:00,52.0,50.5,29.96,SW,218,10.0,16.0,95,0.00,,,0.00,meteohub,2013-07-15 11:02:00,
2013-07-15 04:07:00,52.0,50.5,29.96,SSW,209,11.0,14.0,95,0.00,,,0.00,meteohub,2013-07-15 11:07:00,
2013-07-15 04:12:00,52.0,50.5,29.96,South,188,12.0,14.0,95,0.00,,,0.00,meteohub,2013-07-15 11:12:00,
2013-07-15 04:17:00,51.6,50.2,29.96,South,181,9.0,15.0,95,0.00,,,0.00,meteohub,2013-07-15 11:17:00,
2013-07-15 04:22:00,51.6,50.2,29.96,SSW,200,8.0,16.0,95,0.00,,,0.00,meteohub,2013-07-15 11:22:00,
2013-07-15 04:27:00,51.6,50.2,29.96,SSW,210,6.0,16.0,95,0.00,,,0.00,meteohub,2013-07-15 11:27:00,
2013-07-15 04:32:00,51.8,50.4,29.96,WSW,243,9.0,16.0,95,0.00,,,0.00,meteohub,2013-07-15 11:32:00,
2013-07-15 04:37:00,51.6,50.2,29.96,South,189,6.0,15.0,95,0.00,,,0.00,meteohub,2013-07-15 11:37:00,
2013-07-15 04:42:00,51.6,50.2,29.96,SW,217,7.0,15.0,95,0.00,,,0.00,meteohub,2013-07-15 11:42:00,
2013-07-15 04:47:00,51.6,50.2,29.96,SSW,210,10.0,15.0,95,0.00,,,0.00,meteohub,2013-07-15 11:47:00,
2013-07-15 04:52:00,51.6,50.2,29.96,SW,236,8.0,13.0,95,0.00,,,0.00,meteohub,2013-07-15 11:52:00,
2013-07-15 04:57:00,51.6,50.0,29.96,SSW,212,6.0,13.0,94,0.00,,,0.00,meteohub,2013-07-15 11:57:00,
2013-07-15 05:02:00,51.6,50.2,29.96,SW,216,5.0,13.0,95,0.00,,,0.00,meteohub,2013-07-15 12:02:00,
2013-07-15 05:07:00,51.6,50.0,29.96,SW,235,9.0,15.0,94,0.00,,,0.00,meteohub,2013-07-15 12:07:00,
2013-07-15 05:12:00,51.4,49.8,29.96,SW,219,9.0,15.0,94,0.00,,,0.00,meteohub,2013-07-15 12:12:00,
2013-07-15 05:17:00,51.4,50.0,29.96,SW,228,6.0,15.0,95,0.00,,,0.00,meteohub,2013-07-15 12:17:00,
2013-07-15 05:22:00,51.4,50.0,29.96,SSW,207,6.0,15.0,95,0.00,,,0.00,meteohub,2013-07-15 12:22:00,
2013-07-15 05:27:00,51.6,50.2,29.97,SW,220,7.0,15.0,95,0.00,,,0.00,meteohub,2013-07-15 12:27:00,
2013-07-15 05:32:00,51.6,50.2,29.97,SSW,200,9.0,13.0,95,0.00,,,0.00,meteohub,2013-07-15 12:32:00,
2013-07-15 05:37:00,51.6,50.0,29.97,South,188,9.0,13.0,94,0.00,,,0.00,meteohub,2013-07-15 12:37:00,
2013-07-15 05:42:00,51.6,50.2,29.97,SSW,204,6.0,15.0,95,0.00,,,0.00,meteohub,2013-07-15 12:42:00,
2013-07-15 05:47:00,51.6,50.2,29.96,SW,214,11.0,15.0,95,0.00,,,0.00,meteohub,2013-07-15 12:47:00,
2013-07-15 05:52:00,51.4,50.0,29.96,SW,225,8.0,15.0,95,0.00,,,0.00,meteohub,2013-07-15 12:52:00,
2013-07-15 05:57:00,51.3,49.8,29.97,SW,227,6.0,16.0,95,0.00,,,0.00,meteohub,2013-07-15 12:57:00,
2013-07-15 06:02:00,51.3,49.8,29.97,SW,224,5.0,16.0,95,0.00,,,0.00,meteohub,2013-07-15 13:02:00,
2013-07-15 06:07:00,51.3,49.8,29.97,WSW,241,12.0,16.0,95,0.00,,,0.00,meteohub,2013-07-15 13:07:00,
2013-07-15 06:12:00,51.3,49.8,29.96,SW,222,5.0,15.0,95,0.00,,,0.00,meteohub,2013-07-15 13:12:00,
2013-07-15 06:18:00,51.3,49.8,29.97,South,177,9.0,15.0,95,0.00,,,0.00,meteohub,2013-07-15 13:18:00,
2013-07-15 06:23:00,51.3,49.8,29.97,SSW,212,10.0,13.0,95,0.00,,,0.00,meteohub,2013-07-15 13:23:00,
2013-07-15 06:28:00,51.4,50.0,29.97,South,172,7.0,12.0,95,0.00,,,0.00,meteohub,2013-07-15 13:28:00,
2013-07-15 06:33:00,51.4,50.0,29.97,SSW,211,8.0,13.0,95,0.00,,,0.00,meteohub,2013-07-15 13:33:00,
2013-07-15 06:38:00,51.4,50.0,29.97,South,181,4.0,13.0,95,0.00,,,0.00,meteohub,2013-07-15 13:38:00,
2013-07-15 06:43:00,51.4,50.0,29.97,SW,221,8.0,13.0,95,0.00,,,0.00,meteohub,2013-07-15 13:43:00,
2013-07-15 06:48:00,51.4,50.0,29.97,SSW,194,6.0,14.0,95,0.00,,,0.00,meteohub,2013-07-15 13:48:00,
2013-07-15 06:53:00,51.4,50.0,29.97,SW,222,7.0,14.0,95,0.00,,,0.00,meteohub,2013-07-15 13:53:00,
2013-07-15 06:58:00,51.4,50.0,29.97,WSW,238,5.0,14.0,95,0.00,,,0.00,meteohub,2013-07-15 13:58:00,
2013-07-15 07:03:00,51.4,49.8,29.97,WSW,241,11.0,14.0,94,0.00,,,0.00,meteohub,2013-07-15 14:03:00,
2013-07-15 07:08:00,51.4,49.8,29.98,SSW,208,7.0,14.0,94,0.00,,,0.00,meteohub,2013-07-15 14:08:00,
2013-07-15 07:13:00,51.8,50.4,29.98,SSW,212,7.0,14.0,95,0.00,,,0.00,meteohub,2013-07-15 14:13:00,
2013-07-15 07:18:00,51.4,49.8,29.98,SW,231,6.0,11.0,94,0.00,,,0.00,meteohub,2013-07-15 14:18:00,
2013-07-15 07:23:00,51.4,49.8,29.98,SW,234,11.0,15.0,94,0.00,,,0.00,meteohub,2013-07-15 14:23:00,
2013-07-15 07:28:00,51.4,49.8,29.98,SSW,213,7.0,15.0,94,0.00,,,0.00,meteohub,2013-07-15 14:28:00,
2013-07-15 07:33:00,51.4,49.8,29.98,SW,217,8.0,14.0,94,0.00,,,0.00,meteohub,2013-07-15 14:33:00,
2013-07-15 07:38:00,51.6,50.0,29.98,SW,228,6.0,14.0,94,0.00,,,0.00,meteohub,2013-07-15 14:38:00,
2013-07-15 07:43:00,51.6,50.0,29.98,SW,218,5.0,13.0,94,0.00,,,0.00,meteohub,2013-07-15 14:43:00,
2013-07-15 07:48:00,51.6,50.0,29.98,SSW,213,11.0,12.0,94,0.00,,,0.00,meteohub,2013-07-15 14:48:00,
2013-07-15 07:53:00,51.6,50.0,29.98,SW,218,4.0,14.0,94,0.00,,,0.00,meteohub,2013-07-15 14:53:00,
2013-07-15 07:59:00,51.8,50.2,29.98,SW,222,5.0,14.0,94,0.00,,,0.00,meteohub,2013-07-15 14:59:00,
2013-07-15 08:04:00,52.0,50.4,29.98,SSW,203,11.0,13.0,94,0.00,,,0.00,meteohub,2013-07-15 15:04:00,
2013-07-15 08:09:00,52.2,50.5,29.98,SSW,212,10.0,13.0,94,0.00,,,0.00,meteohub,2013-07-15 15:09:00,
2013-07-15 08:14:00,52.2,50.5,29.98,SW,214,7.0,13.0,94,0.00,,,0.00,meteohub,2013-07-15 15:14:00,
2013-07-15 08:19:00,52.2,50.5,29.98,SSW,202,8.0,13.0,94,0.00,,,0.00,meteohub,2013-07-15 15:19:00,
2013-07-15 08:25:00,52.2,50.5,29.98,SW,220,8.0,13.0,94,0.00,,,0.00,meteohub,2013-07-15 15:25:00,
2013-07-15 08:30:00,52.2,50.5,29.98,SSW,212,7.0,14.0,94,0.00,,,0.00,meteohub,2013-07-15 15:30:00,
2013-07-15 08:35:00,52.2,50.5,29.98,SSW,197,8.0,13.0,94,0.00,,,0.00,meteohub,2013-07-15 15:35:00,
2013-07-15 08:41:00,52.3,50.7,29.98,SSW,193,11.0,13.0,94,0.00,,,0.00,meteohub,2013-07-15 15:41:00,
2013-07-15 08:46:00,52.3,50.7,29.98,SSW,202,11.0,13.0,94,0.00,,,0.00,meteohub,2013-07-15 15:46:00,
2013-07-15 08:51:00,52.3,50.7,29.98,SSW,210,7.0,17.0,94,0.00,,,0.00,meteohub,2013-07-15 15:51:00,
2013-07-15 08:56:00,52.5,50.9,29.98,SW,214,10.0,17.0,94,0.00,,,0.00,meteohub,2013-07-15 15:56:00,
2013-07-15 09:01:00,52.5,50.9,29.99,SW,230,11.0,17.0,94,0.00,,,0.00,meteohub,2013-07-15 16:01:00,
2013-07-15 09:08:00,52.5,50.9,29.98,SW,226,7.0,14.0,94,0.00,,,0.00,meteohub,2013-07-15 16:08:00,
2013-07-15 09:13:00,52.5,50.5,29.98,SW,235,10.0,15.0,93,0.00,,,0.00,meteohub,2013-07-15 16:13:00,
2013-07-15 09:18:00,52.5,50.5,29.98,WSW,237,12.0,15.0,93,0.00,,,0.00,meteohub,2013-07-15 16:18:00,
2013-07-15 09:24:00,52.5,50.5,29.98,SSW,204,5.0,14.0,93,0.00,,,0.00,meteohub,2013-07-15 16:24:00,
2013-07-15 09:29:00,52.7,50.7,29.98,SW,221,9.0,14.0,93,0.00,,,0.00,meteohub,2013-07-15 16:29:00,
2013-07-15 09:35:00,52.9,50.9,29.98,SSW,199,7.0,13.0,93,0.00,,,0.00,meteohub,2013-07-15 16:35:00,
2013-07-15 09:40:00,53.1,50.7,29.98,SSW,206,6.0,14.0,92,0.00,,,0.00,meteohub,2013-07-15 16:40:00,
2013-07-15 09:45:00,52.9,50.5,29.98,SW,229,7.0,14.0,92,0.00,,,0.00,meteohub,2013-07-15 16:45:00,
2013-07-15 09:51:00,53.2,50.9,29.99,SW,224,9.0,11.0,92,0.00,,,0.00,meteohub,2013-07-15 16:51:00,
2013-07-15 09:56:00,53.4,50.9,29.98,SW,220,9.0,11.0,91,0.00,,,0.00,meteohub,2013-07-15 16:56:00,
2013-07-15 10:01:00,53.6,51.1,29.98,SW,214,10.0,11.0,91,0.00,,,0.00,meteohub,2013-07-15 17:01:00,
2013-07-15 10:07:00,53.8,51.3,29.98,WSW,245,11.0,12.0,91,0.00,,,0.00,meteohub,2013-07-15 17:07:00,
2013-07-15 10:12:00,53.8,51.3,29.98,SW,218,11.0,12.0,91,0.00,,,0.00,meteohub,2013-07-15 17:12:00,
2013-07-15 10:17:00,54.0,51.4,29.98,SW,231,8.0,12.0,91,0.00,,,0.00,meteohub,2013-07-15 17:17:00,
2013-07-15 10:23:00,54.0,51.4,29.98,SW,233,5.0,12.0,91,0.00,,,0.00,meteohub,2013-07-15 17:23:00,
2013-07-15 10:28:00,54.1,51.6,29.98,SW,216,6.0,12.0,91,0.00,,,0.00,meteohub,2013-07-15 17:28:00,
2013-07-15 10:33:00,54.1,51.3,29.98,SW,217,12.0,12.0,90,0.00,,,0.00,meteohub,2013-07-15 17:33:00,
2013-07-15 10:39:00,54.1,51.6,29.98,SSW,207,10.0,14.0,91,0.00,,,0.00,meteohub,2013-07-15 17:39:00,
2013-07-15 10:44:00,54.3,51.8,29.98,SW,226,11.0,14.0,91,0.00,,,0.00,meteohub,2013-07-15 17:44:00,
2013-07-15 10:49:00,54.3,51.8,29.98,SSW,206,8.0,14.0,91,0.00,,,0.00,meteohub,2013-07-15 17:49:00,
2013-07-15 10:55:00,54.7,52.2,29.98,SW,218,10.0,14.0,91,0.00,,,0.00,meteohub,2013-07-15 17:55:00,
2013-07-15 11:00:00,54.7,52.2,29.98,SSW,212,11.0,14.0,91,0.00,,,0.00,meteohub,2013-07-15 18:00:00,
2013-07-15 11:06:00,54.7,51.8,29.98,SW,218,10.0,14.0,90,0.00,,,0.00,meteohub,2013-07-15 18:06:00,
2013-07-15 11:11:00,54.7,52.2,29.98,SW,219,11.0,13.0,91,0.00,,,0.00,meteohub,2013-07-15 18:11:00,
2013-07-15 11:16:00,54.7,52.2,29.98,SSW,203,9.0,14.0,91,0.00,,,0.00,meteohub,2013-07-15 18:16:00,
2013-07-15 11:22:00,54.7,51.8,29.98,South,186,11.0,15.0,90,0.00,,,0.00,meteohub,2013-07-15 18:22:00,
2013-07-15 11:27:00,54.9,52.0,29.98,SSW,208,7.0,16.0,90,0.00,,,0.00,meteohub,2013-07-15 18:27:00,
2013-07-15 11:32:00,55.4,52.5,29.97,SW,216,12.0,16.0,90,0.00,,,0.00,meteohub,2013-07-15 18:32:00,
2013-07-15 11:37:00,55.6,52.3,29.97,SSW,210,15.0,15.0,89,0.00,,,0.00,meteohub,2013-07-15 18:37:00,
2013-07-15 11:42:00,55.6,52.7,29.97,South,177,8.0,14.0,90,0.00,,,0.00,meteohub,2013-07-15 18:42:00,
2013-07-15 11:48:00,55.8,52.5,29.97,South,187,11.0,17.0,89,0.00,,,0.00,meteohub,2013-07-15 18:48:00,
2013-07-15 11:53:00,56.1,52.7,29.97,SSW,204,13.0,17.0,88,0.00,,,0.00,meteohub,2013-07-15 18:53:00,
2013-07-15 11:58:00,56.3,53.1,29.97,SSW,207,12.0,15.0,89,0.00,,,0.00,meteohub,2013-07-15 18:58:00,
2013-07-15 12:04:00,56.1,52.7,29.97,SSW,210,11.0,17.0,88,0.00,,,0.00,meteohub,2013-07-15 19:04:00,
2013-07-15 12:09:00,55.9,52.7,29.97,SSW,201,8.0,17.0,89,0.00,,,0.00,meteohub,2013-07-15 19:09:00,
2013-07-15 12:14:00,56.1,52.9,29.97,SW,220,14.0,17.0,89,0.00,,,0.00,meteohub,2013-07-15 19:14:00,
2013-07-15 12:19:00,56.5,52.9,29.97,SSW,207,10.0,15.0,88,0.00,,,0.00,meteohub,2013-07-15 19:19:00,
2013-07-15 12:25:00,56.5,52.7,29.97,SSW,202,7.0,17.0,87,0.00,,,0.00,meteohub,2013-07-15 19:25:00,
2013-07-15 12:30:00,56.7,52.5,29.97,SSW,210,7.0,19.0,86,0.00,,,0.00,meteohub,2013-07-15 19:30:00,
2013-07-15 12:35:00,56.7,52.9,29.97,SSW,195,13.0,19.0,87,0.00,,,0.00,meteohub,2013-07-15 19:35:00,
2013-07-15 12:40:00,57.4,53.2,29.97,South,173,11.0,19.0,86,0.00,,,0.00,meteohub,2013-07-15 19:40:00,
2013-07-15 12:45:00,57.4,53.2,29.97,SSW,206,7.0,18.0,86,0.00,,,0.00,meteohub,2013-07-15 19:45:00,
2013-07-15 12:51:00,58.1,53.2,29.97,SSW,203,13.0,18.0,84,0.00,,,0.00,meteohub,2013-07-15 19:51:00,
2013-07-15 12:56:00,58.1,53.6,29.96,SSW,207,15.0,18.0,85,0.00,,,0.00,meteohub,2013-07-15 19:56:00,
2013-07-15 13:01:00,58.6,53.8,29.96,SSW,204,16.0,18.0,84,0.00,,,0.00,meteohub,2013-07-15 20:01:00,
2013-07-15 13:06:00,58.1,52.9,29.96,South,183,7.0,18.0,83,0.00,,,0.00,meteohub,2013-07-15 20:06:00,
2013-07-15 13:11:00,58.6,53.4,29.96,South,183,15.0,18.0,83,0.00,,,0.00,meteohub,2013-07-15 20:11:00,
2013-07-15 13:17:00,58.3,53.4,29.96,South,187,12.0,18.0,84,0.00,,,0.00,meteohub,2013-07-15 20:17:00,
2013-07-15 13:22:00,59.2,54.3,29.96,SSW,199,9.0,17.0,84,0.00,,,0.00,meteohub,2013-07-15 20:22:00,
2013-07-15 13:27:00,59.4,54.1,29.96,SW,219,14.0,17.0,83,0.00,,,0.00,meteohub,2013-07-15 20:27:00,
2013-07-15 13:33:00,59.0,54.1,29.96,South,183,13.0,17.0,84,0.00,,,0.00,meteohub,2013-07-15 20:33:00,
2013-07-15 13:38:00,59.2,54.0,29.96,SSW,204,8.0,16.0,83,0.00,,,0.00,meteohub,2013-07-15 20:38:00,
2013-07-15 13:43:00,59.5,54.3,29.95,SSW,199,9.0,16.0,83,0.00,,,0.00,meteohub,2013-07-15 20:43:00,
2013-07-15 13:49:00,59.9,54.3,29.95,SSW,208,7.0,16.0,82,0.00,,,0.00,meteohub,2013-07-15 20:49:00,
2013-07-15 13:54:00,60.1,54.0,29.95,SSW,206,9.0,15.0,80,0.00,,,0.00,meteohub,2013-07-15 20:54:00,
2013-07-15 13:59:00,59.7,54.0,29.95,SSW,213,8.0,15.0,81,0.00,,,0.00,meteohub,2013-07-15 20:59:00,
2013-07-15 14:05:00,59.9,54.1,29.95,WSW,239,13.0,18.0,81,0.00,,,0.00,meteohub,2013-07-15 21:05:00,
2013-07-15 14:10:00,60.1,54.0,29.94,WSW,240,11.0,18.0,80,0.00,,,0.00,meteohub,2013-07-15 21:10:00,
2013-07-15 14:16:00,61.0,54.5,29.94,WSW,238,13.0,16.0,79,0.00,,,0.00,meteohub,2013-07-15 21:16:00,
2013-07-15 14:21:00,61.2,54.0,29.94,SW,232,10.0,16.0,77,0.00,,,0.00,meteohub,2013-07-15 21:21:00,
2013-07-15 14:26:00,61.3,54.1,29.94,SW,221,8.0,18.0,77,0.00,,,0.00,meteohub,2013-07-15 21:26:00,
2013-07-15 14:32:00,61.5,54.3,29.94,SSW,193,10.0,18.0,77,0.00,,,0.00,meteohub,2013-07-15 21:32:00,
2013-07-15 14:37:00,61.2,54.7,29.94,SSW,201,13.0,19.0,79,0.00,,,0.00,meteohub,2013-07-15 21:37:00,
2013-07-15 14:42:00,61.3,55.4,29.94,SSW,198,13.0,19.0,81,0.00,,,0.00,meteohub,2013-07-15 21:42:00,
2013-07-15 14:47:00,60.8,54.3,29.94,SSW,211,12.0,19.0,79,0.00,,,0.00,meteohub,2013-07-15 21:47:00,
2013-07-15 14:53:00,60.3,54.7,29.93,SSW,211,13.0,18.0,82,0.00,,,0.00,meteohub,2013-07-15 21:53:00,
2013-07-15 14:58:00,61.2,55.2,29.93,SW,215,6.0,18.0,81,0.00,,,0.00,meteohub,2013-07-15 21:58:00,
2013-07-15 15:03:00,61.2,54.7,29.93,SSW,210,13.0,18.0,79,0.00,,,0.00,meteohub,2013-07-15 22:03:00,
2013-07-15 15:09:00,61.3,55.4,29.93,SW,224,19.0,19.0,81,0.00,,,0.00,meteohub,2013-07-15 22:09:00,
2013-07-15 15:14:00,60.8,54.3,29.93,SW,219,12.0,17.0,79,0.00,,,0.00,meteohub,2013-07-15 22:14:00,
2013-07-15 15:19:00,61.0,54.5,29.93,South,190,11.0,19.0,79,0.00,,,0.00,meteohub,2013-07-15 22:19:00,
2013-07-15 15:24:00,61.2,54.9,29.93,South,177,9.0,19.0,80,0.00,,,0.00,meteohub,2013-07-15 22:24:00,
2013-07-15 15:29:00,61.2,54.9,29.93,SSW,207,15.0,19.0,80,0.00,,,0.00,meteohub,2013-07-15 22:29:00,
2013-07-15 15:35:00,61.0,54.7,29.92,SW,216,14.0,19.0,80,0.00,,,0.00,meteohub,2013-07-15 22:35:00,
2013-07-15 15:40:00,61.0,54.7,29.92,SW,216,6.0,19.0,80,0.00,,,0.00,meteohub,2013-07-15 22:40:00,
2013-07-15 15:45:00,61.0,54.7,29.92,SSE,166,10.0,19.0,80,0.00,,,0.00,meteohub,2013-07-15 22:45:00,
2013-07-15 15:51:00,60.4,54.5,29.92,SW,228,10.0,19.0,81,0.00,,,0.00,meteohub,2013-07-15 22:51:00,
2013-07-15 15:56:00,60.8,54.7,29.92,SW,215,15.0,19.0,80,0.00,,,0.00,meteohub,2013-07-15 22:56:00,
2013-07-15 16:01:00,60.4,54.5,29.92,South,184,12.0,19.0,81,0.00,,,0.00,meteohub,2013-07-15 23:01:00,
2013-07-15 16:06:00,60.3,54.7,29.92,South,183,11.0,19.0,82,0.00,,,0.00,meteohub,2013-07-15 23:06:00,
2013-07-15 16:11:00,60.8,55.2,29.91,SSW,209,15.0,19.0,82,0.00,,,0.00,meteohub,2013-07-15 23:11:00,
2013-07-15 16:17:00,60.6,55.0,29.91,SW,215,12.0,19.0,82,0.00,,,0.00,meteohub,2013-07-15 23:17:00,
2013-07-15 16:22:00,60.4,54.5,29.91,SSW,193,16.0,18.0,81,0.00,,,0.00,meteohub,2013-07-15 23:22:00,
2013-07-15 16:27:00,60.1,54.9,29.91,South,187,6.0,18.0,83,0.00,,,0.00,meteohub,2013-07-15 23:27:00,
2013-07-15 16:32:00,60.3,54.7,29.91,South,187,13.0,19.0,82,0.00,,,0.00,meteohub,2013-07-15 23:32:00,
2013-07-15 16:37:00,60.3,55.0,29.91,South,191,11.0,19.0,83,0.00,,,0.00,meteohub,2013-07-15 23:37:00,
2013-07-15 16:43:00,60.4,55.2,29.91,SSW,206,14.0,19.0,83,0.00,,,0.00,meteohub,2013-07-15 23:43:00,
2013-07-15 16:48:00,60.1,54.5,29.91,South,172,13.0,18.0,82,0.00,,,0.00,meteohub,2013-07-15 23:48:00,
2013-07-15 16:53:00,61.0,55.0,29.91,SW,214,7.0,18.0,81,0.00,,,0.00,meteohub,2013-07-15 23:53:00,
2013-07-15 16:58:00,61.2,54.7,29.91,SW,236,11.0,18.0,79,0.00,,,0.00,meteohub,2013-07-15 23:58:00,
2013-07-15 17:04:00,60.4,54.0,29.91,SW,227,8.0,18.0,79,0.00,,,0.00,meteohub,2013-07-16 00:04:00,
2013-07-15 17:09:00,60.6,54.1,29.91,WSW,238,15.0,15.0,79,0.00,,,0.00,meteohub,2013-07-16 00:09:00,
2013-07-15 17:15:00,61.0,54.1,29.91,SSW,200,6.0,16.0,78,0.00,,,0.00,meteohub,2013-07-16 00:15:00,
2013-07-15 17:20:00,61.2,54.7,29.91,SW,219,8.0,17.0,79,0.00,,,0.00,meteohub,2013-07-16 00:20:00,
2013-07-15 17:26:00,61.0,54.5,29.90,South,181,11.0,17.0,79,0.00,,,0.00,meteohub,2013-07-16 00:26:00,
2013-07-15 17:31:00,60.4,54.3,29.91,SSW,200,10.0,17.0,80,0.00,,,0.00,meteohub,2013-07-16 00:31:00,
2013-07-15 17:37:00,60.4,54.0,29.90,SW,215,13.0,15.0,79,0.00,,,0.00,meteohub,2013-07-16 00:37:00,
2013-07-15 17:42:00,60.4,54.5,29.90,SSW,208,9.0,16.0,81,0.00,,,0.00,meteohub,2013-07-16 00:42:00,
2013-07-15 17:48:00,60.1,54.3,29.90,SSW,195,12.0,16.0,81,0.00,,,0.00,meteohub,2013-07-16 00:48:00,
2013-07-15 17:53:00,59.4,54.5,29.90,SSW,197,11.0,17.0,84,0.00,,,0.00,meteohub,2013-07-16 00:53:00,
2013-07-15 17:58:00,59.7,54.5,29.90,SSW,205,10.0,17.0,83,0.00,,,0.00,meteohub,2013-07-16 00:58:00,
2013-07-15 18:03:00,59.4,53.8,29.90,SSW,195,12.0,17.0,82,0.00,,,0.00,meteohub,2013-07-16 01:03:00,
2013-07-15 18:08:00,59.5,54.3,29.90,SW,222,7.0,17.0,83,0.00,,,0.00,meteohub,2013-07-16 01:08:00,
2013-07-15 18:14:00,60.3,54.3,29.89,South,175,13.0,17.0,81,0.00,,,0.00,meteohub,2013-07-16 01:14:00,
2013-07-15 18:20:00,59.7,54.0,29.89,WSW,239,14.0,17.0,81,0.00,,,0.00,meteohub,2013-07-16 01:20:00,
2013-07-15 18:25:00,59.9,54.1,29.89,SSW,207,7.0,17.0,81,0.00,,,0.00,meteohub,2013-07-16 01:25:00,
2013-07-15 18:30:00,59.4,53.6,29.90,SW,218,12.0,18.0,81,0.00,,,0.00,meteohub,2013-07-16 01:30:00,
2013-07-15 18:36:00,59.2,54.0,29.90,WSW,237,15.0,18.0,83,0.00,,,0.00,meteohub,2013-07-16 01:36:00,
2013-07-15 18:41:00,58.8,53.6,29.90,WSW,237,16.0,18.0,83,0.00,,,0.00,meteohub,2013-07-16 01:41:00,
2013-07-15 18:46:00,58.5,53.6,29.90,SW,224,12.0,19.0,84,0.00,,,0.00,meteohub,2013-07-16 01:46:00,
2013-07-15 18:52:00,58.8,54.0,29.90,SW,220,10.0,19.0,84,0.00,,,0.00,meteohub,2013-07-16 01:52:00,
2013-07-15 18:57:00,59.0,53.8,29.90,WSW,241,11.0,19.0,83,0.00,,,0.00,meteohub,2013-07-16 01:57:00,
2013-07-15 19:02:00,58.6,53.8,29.90,SW,231,6.0,16.0,84,0.00,,,0.00,meteohub,2013-07-16 02:02:00,
2013-07-15 19:07:00,58.8,54.0,29.90,SW,233,15.0,16.0,84,0.00,,,0.00,meteohub,2013-07-16 02:07:00,
2013-07-15 19:13:00,58.3,53.4,29.90,WSW,245,19.0,19.0,84,0.00,,,0.00,meteohub,2013-07-16 02:13:00,
2013-07-15 19:18:00,58.3,53.8,29.90,WSW,248,9.0,19.0,85,0.00,,,0.00,meteohub,2013-07-16 02:18:00,
2013-07-15 19:23:00,57.7,53.6,29.90,SW,221,9.0,19.0,86,0.00,,,0.00,meteohub,2013-07-16 02:23:00,
2013-07-15 19:28:00,57.6,53.8,29.90,WSW,251,9.0,19.0,87,0.00,,,0.00,meteohub,2013-07-16 02:28:00,
2013-07-15 19:33:00,57.6,53.1,29.90,SW,235,18.0,19.0,85,0.00,,,0.00,meteohub,2013-07-16 02:33:00,
2013-07-15 19:39:00,57.6,53.8,29.90,SW,231,12.0,20.0,87,0.00,,,0.00,meteohub,2013-07-16 02:39:00,
2013-07-15 19:44:00,57.6,53.8,29.90,SW,228,6.0,20.0,87,0.00,,,0.00,meteohub,2013-07-16 02:44:00,
2013-07-15 19:49:00,57.4,53.6,29.90,WSW,247,14.0,20.0,87,0.00,,,0.00,meteohub,2013-07-16 02:49:00,
2013-07-15 19:54:00,57.2,53.4,29.90,SW,235,9.0,16.0,87,0.00,,,0.00,meteohub,2013-07-16 02:54:00,
2013-07-15 19:59:00,57.4,53.2,29.90,SW,216,8.0,17.0,86,0.00,,,0.00,meteohub,2013-07-16 02:59:00,
2013-07-15 20:04:00,57.2,53.1,29.91,WSW,239,10.0,17.0,86,0.00,,,0.00,meteohub,2013-07-16 03:04:00,
2013-07-15 20:09:00,56.8,53.1,29.91,SW,236,8.0,17.0,87,0.00,,,0.00,meteohub,2013-07-16 03:09:00,
2013-07-15 20:15:00,56.8,53.1,29.91,WSW,243,11.0,17.0,87,0.00,,,0.00,meteohub,2013-07-16 03:15:00,
2013-07-15 20:20:00,56.8,53.1,29.91,SW,231,8.0,16.0,87,0.00,,,0.00,meteohub,2013-07-16 03:20:00,
2013-07-15 20:26:00,56.7,53.1,29.91,SW,233,12.0,18.0,88,0.00,,,0.00,meteohub,2013-07-16 03:26:00,
2013-07-15 20:31:00,56.7,53.1,29.91,SW,229,13.0,18.0,88,0.00,,,0.00,meteohub,2013-07-16 03:31:00,
2013-07-15 20:36:00,56.5,52.9,29.91,SW,216,7.0,18.0,88,0.00,,,0.00,meteohub,2013-07-16 03:36:00,
2013-07-15 20:42:00,56.5,52.9,29.91,SW,228,10.0,17.0,88,0.00,,,0.00,meteohub,2013-07-16 03:42:00,
2013-07-15 20:47:00,56.5,52.9,29.91,SSW,208,10.0,19.0,88,0.00,,,0.00,meteohub,2013-07-16 03:47:00,
2013-07-15 20:52:00,56.5,52.9,29.91,SW,221,10.0,19.0,88,0.00,,,0.00,meteohub,2013-07-16 03:52:00,
2013-07-15 20:58:00,56.5,52.9,29.91,SW,224,6.0,17.0,88,0.00,,,0.00,meteohub,2013-07-16 03:58:00,
2013-07-15 21:01:00,56.5,52.9,29.91,WSW,251,14.0,14.0,88,0.00,,,0.00,meteohub,2013-07-16 04:01:00,
2013-07-15 21:02:00,56.5,52.9,29.91,SW,234,8.0,14.0,88,0.00,,,0.00,meteohub,2013-07-16 04:02:00,
2013-07-15 21:03:00,56.5,52.9,29.91,SW,236,9.0,14.0,88,0.00,,,0.00,meteohub,2013-07-16 04:03:00,
2013-07-15 21:07:00,56.5,52.9,29.91,WSW,244,9.0,14.0,88,0.00,,,0.00,meteohub,2013-07-16 04:07:00,
2013-07-15 21:12:00,56.3,52.9,29.91,WSW,247,9.0,14.0,88,0.00,,,0.00,meteohub,2013-07-16 04:12:00,
2013-07-15 21:17:00,56.3,52.9,29.92,WSW,257,10.0,17.0,88,0.00,,,0.00,meteohub,2013-07-16 04:17:00,
2013-07-15 21:22:00,56.5,52.9,29.92,WSW,249,12.0,17.0,88,0.00,,,0.00,meteohub,2013-07-16 04:22:00,
2013-07-15 21:27:00,56.3,52.9,29.92,WSW,237,12.0,17.0,88,0.00,,,0.00,meteohub,2013-07-16 04:27:00,
2013-07-15 21:33:00,56.3,52.9,29.92,WSW,246,10.0,16.0,88,0.00,,,0.00,meteohub,2013-07-16 04:33:00,
2013-07-15 21:38:00,56.3,52.9,29.92,WSW,251,10.0,16.0,88,0.00,,,0.00,meteohub,2013-07-16 04:38:00,
2013-07-15 21:43:00,56.5,52.9,29.92,SSW,204,11.0,15.0,88,0.00,,,0.00,meteohub,2013-07-16 04:43:00,
2013-07-15 21:48:00,56.3,52.9,29.93,SW,215,10.0,15.0,88,0.00,,,0.00,meteohub,2013-07-16 04:48:00,
2013-07-15 21:53:00,56.3,53.1,29.93,SW,230,8.0,13.0,89,0.00,,,0.00,meteohub,2013-07-16 04:53:00,
2013-07-15 21:58:00,56.3,53.1,29.93,SSW,206,7.0,13.0,89,0.00,,,0.00,meteohub,2013-07-16 04:58:00,
2013-07-15 22:03:00,56.5,53.2,29.93,WSW,239,11.0,12.0,89,0.00,,,0.00,meteohub,2013-07-16 05:03:00,
2013-07-15 22:08:00,56.5,53.2,29.93,SW,223,8.0,12.0,89,0.00,,,0.00,meteohub,2013-07-16 05:08:00,
2013-07-15 22:13:00,56.5,53.6,29.93,SSW,204,7.0,12.0,90,0.00,,,0.00,meteohub,2013-07-16 05:13:00,
2013-07-15 22:18:00,56.7,53.4,29.93,SW,235,11.0,12.0,89,0.00,,,0.00,meteohub,2013-07-16 05:18:00,
2013-07-15 22:23:00,56.5,53.2,29.93,SW,214,9.0,13.0,89,0.00,,,0.00,meteohub,2013-07-16 05:23:00,
2013-07-15 22:28:00,56.5,53.6,29.93,SW,233,7.0,15.0,90,0.00,,,0.00,meteohub,2013-07-16 05:28:00,
2013-07-15 22:33:00,56.5,53.6,29.93,SSW,205,7.0,15.0,90,0.00,,,0.00,meteohub,2013-07-16 05:33:00,
2013-07-15 22:38:00,56.5,53.6,29.93,SSW,210,10.0,15.0,90,0.00,,,0.00,meteohub,2013-07-16 05:38:00,
2013-07-15 22:43:00,56.7,54.1,29.93,SW,228,8.0,14.0,91,0.00,,,0.00,meteohub,2013-07-16 05:43:00,
2013-07-15 22:48:00,56.5,53.6,29.93,SW,233,7.0,13.0,90,0.00,,,0.00,meteohub,2013-07-16 05:48:00,
2013-07-15 22:53:00,56.5,53.6,29.93,SW,228,10.0,13.0,90,0.00,,,0.00,meteohub,2013-07-16 05:53:00,
2013-07-15 22:58:00,56.5,53.6,29.93,SSW,207,7.0,14.0,90,0.00,,,0.00,meteohub,2013-07-16 05:58:00,
2013-07-15 23:03:00,56.5,53.6,29.93,SW,216,11.0,14.0,90,0.00,,,0.00,meteohub,2013-07-16 06:03:00,
2013-07-15 23:08:00,56.1,53.2,29.93,SSW,207,7.0,14.0,90,0.00,,,0.00,meteohub,2013-07-16 06:08:00,
2013-07-15 23:13:00,56.3,53.4,29.93,SW,227,10.0,14.0,90,0.00,,,0.00,meteohub,2013-07-16 06:13:00,
2013-07-15 23:18:00,56.3,53.4,29.93,WSW,255,7.0,18.0,90,0.00,,,0.00,meteohub,2013-07-16 06:18:00,
2013-07-15 23:23:00,56.3,53.4,29.93,SW,224,13.0,18.0,90,0.00,,,0.00,meteohub,2013-07-16 06:23:00,
2013-07-15 23:28:00,56.3,53.4,29.93,SW,226,9.0,16.0,90,0.00,,,0.00,meteohub,2013-07-16 06:28:00,
2013-07-15 23:33:00,56.3,53.4,29.93,SW,235,6.0,16.0,90,0.00,,,0.00,meteohub,2013-07-16 06:33:00,
2013-07-15 23:38:00,56.5,53.6,29.93,SW,217,9.0,15.0,90,0.00,,,0.00,meteohub,2013-07-16 06:38:00,
2013-07-15 23:43:00,56.5,54.0,29.93,WSW,240,7.0,12.0,91,0.00,,,0.00,meteohub,2013-07-16 06:43:00,
2013-07-15 23:49:00,56.5,54.0,29.92,SW,235,9.0,12.0,91,0.00,,,0.00,meteohub,2013-07-16 06:49:00,
2013-07-15 23:54:00,56.5,54.0,29.92,WSW,241,9.0,12.0,91,0.00,,,0.00,meteohub,2013-07-16 06:54:00,
2013-07-15 23:59:00,56.3,53.8,29.93,SW,234,7.0,15.0,91,0.00,,,0.00,meteohub,2013-07-16 06:59:00,